sensor_id;sensor_type;location;lat;lon;timestamp;P1;durP1;ratioP1;P2;durP2;ratioP2
37907;SDS011;23740;51.550;6.846;2023-12-07T00:01:10;15.93;;;9.30;;
37907;SDS011;23740;51.550;6.846;2023-12-07T00:03:38;19.27;;;10.38;;
37907;SDS011;23740;51.550;6.846;2023-12-07T00:06:08;19.40;;;9.10;;
37907;SDS011;23740;51.550;6.846;2023-12-07T00:08:36;18.25;;;9.85;;
37907;SDS011;23740;51.550;6.846;2023-12-07T00:11:03;14.80;;;8.75;;
37907;SDS011;23740;51.550;6.846;2023-12-07T00:13:32;16.65;;;8.90;;
37907;SDS011;23740;51.550;6.846;2023-12-07T00:16:00;14.65;;;9.30;;
37907;SDS011;23740;51.550;6.846;2023-12-07T00:18:28;17.52;;;8.52;;
37907;SDS011;23740;51.550;6.846;2023-12-07T00:20:56;16.23;;;9.80;;
37907;SDS011;23740;51.550;6.846;2023-12-07T00:23:25;39.10;;;10.35;;
37907;SDS011;23740;51.550;6.846;2023-12-07T00:25:53;34.97;;;11.20;;
37907;SDS011;23740;51.550;6.846;2023-12-07T00:28:22;24.10;;;9.48;;
37907;SDS011;23740;51.550;6.846;2023-12-07T00:30:50;25.88;;;10.25;;
37907;SDS011;23740;51.550;6.846;2023-12-07T00:33:18;19.00;;;10.38;;
37907;SDS011;23740;51.550;6.846;2023-12-07T00:35:48;16.20;;;9.02;;
37907;SDS011;23740;51.550;6.846;2023-12-07T00:38:16;15.70;;;9.20;;
37907;SDS011;23740;51.550;6.846;2023-12-07T00:40:45;20.83;;;10.70;;
37907;SDS011;23740;51.550;6.846;2023-12-07T00:43:12;24.15;;;10.65;;
37907;SDS011;23740;51.550;6.846;2023-12-07T00:45:40;113.18;;;17.30;;
37907;SDS011;23740;51.550;6.846;2023-12-07T00:48:08;116.32;;;16.25;;
37907;SDS011;23740;51.550;6.846;2023-12-07T00:50:36;121.15;;;16.77;;
37907;SDS011;23740;51.550;6.846;2023-12-07T00:53:04;93.22;;;15.45;;
37907;SDS011;23740;51.550;6.846;2023-12-07T00:55:32;96.18;;;15.20;;
37907;SDS011;23740;51.550;6.846;2023-12-07T00:58:02;73.38;;;12.82;;
37907;SDS011;23740;51.550;6.846;2023-12-07T01:00:30;67.85;;;11.38;;
37907;SDS011;23740;51.550;6.846;2023-12-07T01:02:58;43.75;;;11.57;;
37907;SDS011;23740;51.550;6.846;2023-12-07T01:05:26;26.02;;;11.63;;
37907;SDS011;23740;51.550;6.846;2023-12-07T01:07:54;28.85;;;11.05;;
37907;SDS011;23740;51.550;6.846;2023-12-07T01:10:22;37.83;;;12.20;;
37907;SDS011;23740;51.550;6.846;2023-12-07T01:12:50;68.88;;;13.70;;
37907;SDS011;23740;51.550;6.846;2023-12-07T01:15:19;69.78;;;14.32;;
37907;SDS011;23740;51.550;6.846;2023-12-07T01:17:47;64.60;;;14.25;;
37907;SDS011;23740;51.550;6.846;2023-12-07T01:20:14;80.45;;;18.25;;
37907;SDS011;23740;51.550;6.846;2023-12-07T01:22:43;129.93;;;17.77;;
37907;SDS011;23740;51.550;6.846;2023-12-07T01:25:12;73.32;;;13.95;;
37907;SDS011;23740;51.550;6.846;2023-12-07T01:27:46;118.30;;;17.08;;
37907;SDS011;23740;51.550;6.846;2023-12-07T01:30:14;78.60;;;15.70;;
37907;SDS011;23740;51.550;6.846;2023-12-07T01:32:44;104.88;;;17.58;;
37907;SDS011;23740;51.550;6.846;2023-12-07T01:35:12;68.07;;;18.48;;
37907;SDS011;23740;51.550;6.846;2023-12-07T01:37:40;92.85;;;17.65;;
37907;SDS011;23740;51.550;6.846;2023-12-07T01:40:08;91.80;;;18.05;;
37907;SDS011;23740;51.550;6.846;2023-12-07T01:42:37;104.68;;;17.42;;
37907;SDS011;23740;51.550;6.846;2023-12-07T01:45:06;105.45;;;17.85;;
37907;SDS011;23740;51.550;6.846;2023-12-07T01:47:35;73.70;;;16.05;;
37907;SDS011;23740;51.550;6.846;2023-12-07T01:50:05;106.10;;;18.00;;
37907;SDS011;23740;51.550;6.846;2023-12-07T01:52:34;140.68;;;20.00;;
37907;SDS011;23740;51.550;6.846;2023-12-07T01:55:03;81.57;;;18.02;;
37907;SDS011;23740;51.550;6.846;2023-12-07T01:57:33;83.00;;;15.48;;
37907;SDS011;23740;51.550;6.846;2023-12-07T02:00:01;70.25;;;15.77;;
37907;SDS011;23740;51.550;6.846;2023-12-07T02:02:30;97.53;;;15.65;;
37907;SDS011;23740;51.550;6.846;2023-12-07T02:04:58;76.22;;;15.05;;
37907;SDS011;23740;51.550;6.846;2023-12-07T02:07:27;116.40;;;15.80;;
37907;SDS011;23740;51.550;6.846;2023-12-07T02:09:55;68.47;;;13.27;;
37907;SDS011;23740;51.550;6.846;2023-12-07T02:12:24;96.25;;;15.05;;
37907;SDS011;23740;51.550;6.846;2023-12-07T02:14:53;89.20;;;16.52;;
37907;SDS011;23740;51.550;6.846;2023-12-07T02:17:21;95.70;;;14.45;;
37907;SDS011;23740;51.550;6.846;2023-12-07T02:19:55;62.83;;;16.45;;
37907;SDS011;23740;51.550;6.846;2023-12-07T02:22:42;62.55;;;14.18;;
37907;SDS011;23740;51.550;6.846;2023-12-07T02:25:13;65.80;;;12.23;;
37907;SDS011;23740;51.550;6.846;2023-12-07T02:27:44;84.50;;;14.63;;
37907;SDS011;23740;51.550;6.846;2023-12-07T02:30:12;49.63;;;11.60;;
37907;SDS011;23740;51.550;6.846;2023-12-07T02:32:41;57.45;;;12.48;;
37907;SDS011;23740;51.550;6.846;2023-12-07T02:35:10;59.33;;;11.63;;
37907;SDS011;23740;51.550;6.846;2023-12-07T02:37:40;55.33;;;11.57;;
37907;SDS011;23740;51.550;6.846;2023-12-07T02:40:10;63.97;;;13.25;;
37907;SDS011;23740;51.550;6.846;2023-12-07T02:42:41;118.53;;;14.88;;
37907;SDS011;23740;51.550;6.846;2023-12-07T02:45:11;56.38;;;11.82;;
37907;SDS011;23740;51.550;6.846;2023-12-07T02:47:39;92.25;;;13.10;;
37907;SDS011;23740;51.550;6.846;2023-12-07T02:50:09;46.85;;;10.13;;
37907;SDS011;23740;51.550;6.846;2023-12-07T02:52:37;54.40;;;10.82;;
37907;SDS011;23740;51.550;6.846;2023-12-07T02:55:05;40.47;;;10.52;;
37907;SDS011;23740;51.550;6.846;2023-12-07T02:57:34;81.82;;;11.35;;
37907;SDS011;23740;51.550;6.846;2023-12-07T03:00:04;97.45;;;11.80;;
37907;SDS011;23740;51.550;6.846;2023-12-07T03:02:33;100.70;;;14.40;;
37907;SDS011;23740;51.550;6.846;2023-12-07T03:05:02;168.68;;;15.90;;
37907;SDS011;23740;51.550;6.846;2023-12-07T03:07:30;114.88;;;16.73;;
37907;SDS011;23740;51.550;6.846;2023-12-07T03:09:58;112.45;;;15.70;;
37907;SDS011;23740;51.550;6.846;2023-12-07T03:12:26;190.02;;;16.50;;
37907;SDS011;23740;51.550;6.846;2023-12-07T03:14:54;114.78;;;14.68;;
37907;SDS011;23740;51.550;6.846;2023-12-07T03:17:23;105.82;;;17.77;;
37907;SDS011;23740;51.550;6.846;2023-12-07T03:19:51;82.95;;;17.38;;
37907;SDS011;23740;51.550;6.846;2023-12-07T03:22:19;83.22;;;12.38;;
37907;SDS011;23740;51.550;6.846;2023-12-07T03:24:49;52.53;;;11.27;;
37907;SDS011;23740;51.550;6.846;2023-12-07T03:27:18;90.00;;;14.98;;
37907;SDS011;23740;51.550;6.846;2023-12-07T03:29:47;62.08;;;13.00;;
37907;SDS011;23740;51.550;6.846;2023-12-07T03:32:14;67.35;;;13.23;;
37907;SDS011;23740;51.550;6.846;2023-12-07T03:34:44;56.20;;;12.75;;
37907;SDS011;23740;51.550;6.846;2023-12-07T03:37:11;57.67;;;13.95;;
37907;SDS011;23740;51.550;6.846;2023-12-07T03:39:39;89.07;;;14.15;;
37907;SDS011;23740;51.550;6.846;2023-12-07T03:42:07;52.13;;;13.15;;
37907;SDS011;23740;51.550;6.846;2023-12-07T03:44:55;68.43;;;13.93;;
37907;SDS011;23740;51.550;6.846;2023-12-07T03:47:23;92.15;;;14.95;;
37907;SDS011;23740;51.550;6.846;2023-12-07T03:49:52;57.83;;;15.52;;
37907;SDS011;23740;51.550;6.846;2023-12-07T03:52:20;83.97;;;14.95;;
37907;SDS011;23740;51.550;6.846;2023-12-07T03:54:48;45.45;;;13.80;;
37907;SDS011;23740;51.550;6.846;2023-12-07T03:57:16;56.22;;;13.45;;
37907;SDS011;23740;51.550;6.846;2023-12-07T03:59:43;47.42;;;14.45;;
37907;SDS011;23740;51.550;6.846;2023-12-07T04:02:13;101.70;;;16.58;;
37907;SDS011;23740;51.550;6.846;2023-12-07T04:04:40;51.00;;;13.10;;
37907;SDS011;23740;51.550;6.846;2023-12-07T04:07:10;69.70;;;18.05;;
37907;SDS011;23740;51.550;6.846;2023-12-07T04:09:38;69.32;;;15.93;;
37907;SDS011;23740;51.550;6.846;2023-12-07T04:12:06;50.50;;;14.98;;
37907;SDS011;23740;51.550;6.846;2023-12-07T04:14:34;55.05;;;13.98;;
37907;SDS011;23740;51.550;6.846;2023-12-07T04:17:02;40.53;;;15.38;;
37907;SDS011;23740;51.550;6.846;2023-12-07T04:19:30;62.92;;;16.95;;
37907;SDS011;23740;51.550;6.846;2023-12-07T04:21:58;56.40;;;15.32;;
37907;SDS011;23740;51.550;6.846;2023-12-07T04:24:27;67.65;;;16.65;;
37907;SDS011;23740;51.550;6.846;2023-12-07T04:26:55;68.35;;;16.02;;
37907;SDS011;23740;51.550;6.846;2023-12-07T04:29:23;52.72;;;15.25;;
37907;SDS011;23740;51.550;6.846;2023-12-07T04:31:51;51.33;;;15.68;;
37907;SDS011;23740;51.550;6.846;2023-12-07T04:34:18;42.58;;;14.77;;
37907;SDS011;23740;51.550;6.846;2023-12-07T04:36:46;52.60;;;16.08;;
37907;SDS011;23740;51.550;6.846;2023-12-07T04:39:14;32.95;;;15.38;;
37907;SDS011;23740;51.550;6.846;2023-12-07T04:41:46;32.15;;;14.68;;
37907;SDS011;23740;51.550;6.846;2023-12-07T04:44:14;36.05;;;14.82;;
37907;SDS011;23740;51.550;6.846;2023-12-07T04:46:42;35.67;;;15.45;;
37907;SDS011;23740;51.550;6.846;2023-12-07T04:49:10;34.85;;;14.68;;
37907;SDS011;23740;51.550;6.846;2023-12-07T04:51:38;39.92;;;15.07;;
37907;SDS011;23740;51.550;6.846;2023-12-07T04:54:07;36.53;;;15.82;;
37907;SDS011;23740;51.550;6.846;2023-12-07T04:56:45;31.42;;;14.00;;
37907;SDS011;23740;51.550;6.846;2023-12-07T04:59:15;36.63;;;15.02;;
37907;SDS011;23740;51.550;6.846;2023-12-07T05:01:44;34.78;;;16.00;;
37907;SDS011;23740;51.550;6.846;2023-12-07T05:04:12;34.10;;;13.38;;
37907;SDS011;23740;51.550;6.846;2023-12-07T05:06:40;33.42;;;14.38;;
37907;SDS011;23740;51.550;6.846;2023-12-07T05:09:08;37.30;;;14.93;;
37907;SDS011;23740;51.550;6.846;2023-12-07T05:11:37;36.28;;;14.93;;
37907;SDS011;23740;51.550;6.846;2023-12-07T05:14:06;29.95;;;13.68;;
37907;SDS011;23740;51.550;6.846;2023-12-07T05:16:34;29.80;;;15.15;;
37907;SDS011;23740;51.550;6.846;2023-12-07T05:19:03;37.50;;;14.90;;
37907;SDS011;23740;51.550;6.846;2023-12-07T05:21:31;32.05;;;15.38;;
37907;SDS011;23740;51.550;6.846;2023-12-07T05:23:58;32.88;;;13.25;;
37907;SDS011;23740;51.550;6.846;2023-12-07T05:26:26;29.25;;;13.85;;
37907;SDS011;23740;51.550;6.846;2023-12-07T05:28:56;31.50;;;13.73;;
37907;SDS011;23740;51.550;6.846;2023-12-07T05:31:26;29.85;;;13.82;;
37907;SDS011;23740;51.550;6.846;2023-12-07T05:33:55;29.40;;;13.70;;
37907;SDS011;23740;51.550;6.846;2023-12-07T05:36:23;33.63;;;14.13;;
37907;SDS011;23740;51.550;6.846;2023-12-07T05:38:52;27.38;;;13.40;;
37907;SDS011;23740;51.550;6.846;2023-12-07T05:41:20;27.83;;;13.07;;
37907;SDS011;23740;51.550;6.846;2023-12-07T05:43:48;29.55;;;13.90;;
37907;SDS011;23740;51.550;6.846;2023-12-07T05:46:17;25.25;;;12.23;;
37907;SDS011;23740;51.550;6.846;2023-12-07T05:48:46;28.15;;;11.65;;
37907;SDS011;23740;51.550;6.846;2023-12-07T05:51:15;32.30;;;14.65;;
37907;SDS011;23740;51.550;6.846;2023-12-07T05:53:44;27.50;;;12.95;;
37907;SDS011;23740;51.550;6.846;2023-12-07T05:56:11;27.73;;;12.70;;
37907;SDS011;23740;51.550;6.846;2023-12-07T05:58:39;26.05;;;13.00;;
37907;SDS011;23740;51.550;6.846;2023-12-07T06:01:11;24.65;;;12.80;;
37907;SDS011;23740;51.550;6.846;2023-12-07T06:03:40;27.52;;;12.90;;
37907;SDS011;23740;51.550;6.846;2023-12-07T06:06:12;27.08;;;13.40;;
37907;SDS011;23740;51.550;6.846;2023-12-07T06:08:39;28.58;;;13.70;;
37907;SDS011;23740;51.550;6.846;2023-12-07T06:11:08;23.95;;;12.30;;
37907;SDS011;23740;51.550;6.846;2023-12-07T06:13:35;27.50;;;14.60;;
37907;SDS011;23740;51.550;6.846;2023-12-07T06:16:03;32.25;;;13.55;;
37907;SDS011;23740;51.550;6.846;2023-12-07T06:18:33;27.65;;;13.45;;
37907;SDS011;23740;51.550;6.846;2023-12-07T06:21:01;29.08;;;12.88;;
37907;SDS011;23740;51.550;6.846;2023-12-07T06:23:31;23.73;;;12.07;;
37907;SDS011;23740;51.550;6.846;2023-12-07T06:26:00;30.08;;;12.73;;
37907;SDS011;23740;51.550;6.846;2023-12-07T06:28:28;26.90;;;12.73;;
37907;SDS011;23740;51.550;6.846;2023-12-07T06:30:59;29.27;;;13.15;;
37907;SDS011;23740;51.550;6.846;2023-12-07T06:33:29;30.65;;;13.85;;
37907;SDS011;23740;51.550;6.846;2023-12-07T06:35:57;26.38;;;11.27;;
37907;SDS011;23740;51.550;6.846;2023-12-07T06:38:24;26.13;;;12.88;;
37907;SDS011;23740;51.550;6.846;2023-12-07T06:40:54;28.13;;;14.60;;
37907;SDS011;23740;51.550;6.846;2023-12-07T06:43:22;28.20;;;12.30;;
37907;SDS011;23740;51.550;6.846;2023-12-07T06:45:50;31.25;;;12.85;;
37907;SDS011;23740;51.550;6.846;2023-12-07T06:48:18;23.95;;;12.65;;
37907;SDS011;23740;51.550;6.846;2023-12-07T06:50:46;27.70;;;12.43;;
37907;SDS011;23740;51.550;6.846;2023-12-07T06:53:14;31.30;;;13.77;;
37907;SDS011;23740;51.550;6.846;2023-12-07T06:55:44;28.40;;;12.80;;
37907;SDS011;23740;51.550;6.846;2023-12-07T06:58:14;28.17;;;12.77;;
37907;SDS011;23740;51.550;6.846;2023-12-07T07:00:41;28.55;;;12.52;;
37907;SDS011;23740;51.550;6.846;2023-12-07T07:03:09;29.48;;;13.35;;
37907;SDS011;23740;51.550;6.846;2023-12-07T07:05:37;30.67;;;13.57;;
37907;SDS011;23740;51.550;6.846;2023-12-07T07:08:07;29.75;;;14.43;;
37907;SDS011;23740;51.550;6.846;2023-12-07T07:10:35;29.77;;;13.57;;
37907;SDS011;23740;51.550;6.846;2023-12-07T07:13:03;24.50;;;11.98;;
37907;SDS011;23740;51.550;6.846;2023-12-07T07:15:33;25.77;;;12.05;;
37907;SDS011;23740;51.550;6.846;2023-12-07T07:18:01;22.65;;;12.10;;
37907;SDS011;23740;51.550;6.846;2023-12-07T07:20:29;26.02;;;12.73;;
37907;SDS011;23740;51.550;6.846;2023-12-07T07:22:56;26.92;;;12.13;;
37907;SDS011;23740;51.550;6.846;2023-12-07T07:25:24;25.88;;;12.38;;
37907;SDS011;23740;51.550;6.846;2023-12-07T07:27:52;27.15;;;12.05;;
37907;SDS011;23740;51.550;6.846;2023-12-07T07:30:21;24.95;;;12.32;;
37907;SDS011;23740;51.550;6.846;2023-12-07T07:32:51;25.48;;;12.25;;
37907;SDS011;23740;51.550;6.846;2023-12-07T07:35:18;23.48;;;11.40;;
37907;SDS011;23740;51.550;6.846;2023-12-07T07:37:46;30.35;;;11.85;;
37907;SDS011;23740;51.550;6.846;2023-12-07T07:40:14;26.70;;;11.98;;
37907;SDS011;23740;51.550;6.846;2023-12-07T07:42:43;25.60;;;12.30;;
37907;SDS011;23740;51.550;6.846;2023-12-07T07:45:10;26.20;;;12.40;;
37907;SDS011;23740;51.550;6.846;2023-12-07T07:47:38;24.90;;;10.82;;
37907;SDS011;23740;51.550;6.846;2023-12-07T07:50:08;25.88;;;11.88;;
37907;SDS011;23740;51.550;6.846;2023-12-07T07:52:39;69.88;;;14.30;;
37907;SDS011;23740;51.550;6.846;2023-12-07T07:55:08;152.93;;;21.75;;
37907;SDS011;23740;51.550;6.846;2023-12-07T07:57:37;36.25;;;12.93;;
37907;SDS011;23740;51.550;6.846;2023-12-07T08:00:05;133.52;;;17.08;;
37907;SDS011;23740;51.550;6.846;2023-12-07T08:02:34;84.95;;;13.88;;
37907;SDS011;23740;51.550;6.846;2023-12-07T08:05:03;40.13;;;11.48;;
37907;SDS011;23740;51.550;6.846;2023-12-07T08:07:32;31.67;;;10.07;;
37907;SDS011;23740;51.550;6.846;2023-12-07T08:10:00;28.92;;;11.95;;
37907;SDS011;23740;51.550;6.846;2023-12-07T08:12:30;22.38;;;10.95;;
37907;SDS011;23740;51.550;6.846;2023-12-07T08:14:58;20.10;;;10.40;;
37907;SDS011;23740;51.550;6.846;2023-12-07T08:17:25;24.23;;;10.98;;
37907;SDS011;23740;51.550;6.846;2023-12-07T08:19:54;25.80;;;12.07;;
37907;SDS011;23740;51.550;6.846;2023-12-07T08:22:23;25.48;;;12.40;;
37907;SDS011;23740;51.550;6.846;2023-12-07T08:24:52;22.23;;;10.80;;
37907;SDS011;23740;51.550;6.846;2023-12-07T08:27:34;23.73;;;11.68;;
37907;SDS011;23740;51.550;6.846;2023-12-07T08:30:02;29.10;;;11.57;;
37907;SDS011;23740;51.550;6.846;2023-12-07T08:32:31;23.85;;;11.60;;
37907;SDS011;23740;51.550;6.846;2023-12-07T08:34:59;20.30;;;10.05;;
37907;SDS011;23740;51.550;6.846;2023-12-07T08:37:27;18.75;;;10.48;;
37907;SDS011;23740;51.550;6.846;2023-12-07T08:39:56;22.83;;;11.75;;
37907;SDS011;23740;51.550;6.846;2023-12-07T08:42:24;25.63;;;12.27;;
37907;SDS011;23740;51.550;6.846;2023-12-07T08:44:52;20.67;;;11.80;;
37907;SDS011;23740;51.550;6.846;2023-12-07T08:47:20;22.05;;;10.20;;
37907;SDS011;23740;51.550;6.846;2023-12-07T08:49:48;19.17;;;10.20;;
37907;SDS011;23740;51.550;6.846;2023-12-07T08:52:20;27.23;;;12.27;;
37907;SDS011;23740;51.550;6.846;2023-12-07T08:55:07;22.95;;;11.65;;
37907;SDS011;23740;51.550;6.846;2023-12-07T08:57:38;19.42;;;9.75;;
37907;SDS011;23740;51.550;6.846;2023-12-07T09:00:06;22.85;;;11.70;;
37907;SDS011;23740;51.550;6.846;2023-12-07T09:02:34;22.35;;;10.65;;
37907;SDS011;23740;51.550;6.846;2023-12-07T09:05:13;26.45;;;12.60;;
37907;SDS011;23740;51.550;6.846;2023-12-07T09:07:41;25.77;;;11.85;;
37907;SDS011;23740;51.550;6.846;2023-12-07T09:10:10;21.88;;;12.20;;
37907;SDS011;23740;51.550;6.846;2023-12-07T09:12:38;20.85;;;11.48;;
37907;SDS011;23740;51.550;6.846;2023-12-07T09:15:07;21.65;;;11.85;;
37907;SDS011;23740;51.550;6.846;2023-12-07T09:17:37;20.33;;;11.25;;
37907;SDS011;23740;51.550;6.846;2023-12-07T09:20:07;16.05;;;9.15;;
37907;SDS011;23740;51.550;6.846;2023-12-07T09:22:40;21.38;;;10.75;;
37907;SDS011;23740;51.550;6.846;2023-12-07T09:25:11;13.18;;;7.50;;
37907;SDS011;23740;51.550;6.846;2023-12-07T09:27:39;16.08;;;8.63;;
37907;SDS011;23740;51.550;6.846;2023-12-07T09:30:10;15.55;;;7.97;;
37907;SDS011;23740;51.550;6.846;2023-12-07T09:32:39;15.30;;;8.98;;
37907;SDS011;23740;51.550;6.846;2023-12-07T09:35:10;19.48;;;9.73;;
37907;SDS011;23740;51.550;6.846;2023-12-07T09:37:42;18.63;;;8.55;;
37907;SDS011;23740;51.550;6.846;2023-12-07T09:40:15;17.13;;;7.82;;
37907;SDS011;23740;51.550;6.846;2023-12-07T09:42:45;14.70;;;6.80;;
37907;SDS011;23740;51.550;6.846;2023-12-07T09:45:13;16.27;;;8.45;;
37907;SDS011;23740;51.550;6.846;2023-12-07T09:47:45;17.35;;;8.57;;
37907;SDS011;23740;51.550;6.846;2023-12-07T09:50:15;16.10;;;7.43;;
37907;SDS011;23740;51.550;6.846;2023-12-07T09:52:44;14.05;;;7.35;;
37907;SDS011;23740;51.550;6.846;2023-12-07T09:55:27;10.15;;;5.32;;
37907;SDS011;23740;51.550;6.846;2023-12-07T09:57:57;12.38;;;7.35;;
37907;SDS011;23740;51.550;6.846;2023-12-07T10:00:25;12.85;;;7.38;;
37907;SDS011;23740;51.550;6.846;2023-12-07T10:02:53;13.85;;;7.25;;
37907;SDS011;23740;51.550;6.846;2023-12-07T10:05:21;12.57;;;7.28;;
37907;SDS011;23740;51.550;6.846;2023-12-07T10:07:50;15.60;;;7.63;;
37907;SDS011;23740;51.550;6.846;2023-12-07T10:10:18;11.35;;;7.25;;
37907;SDS011;23740;51.550;6.846;2023-12-07T10:12:48;12.48;;;7.15;;
37907;SDS011;23740;51.550;6.846;2023-12-07T10:15:19;13.27;;;7.25;;
37907;SDS011;23740;51.550;6.846;2023-12-07T10:17:48;10.73;;;6.53;;
37907;SDS011;23740;51.550;6.846;2023-12-07T10:20:16;12.10;;;7.03;;
37907;SDS011;23740;51.550;6.846;2023-12-07T10:23:00;11.80;;;6.47;;
37907;SDS011;23740;51.550;6.846;2023-12-07T10:25:29;10.60;;;5.88;;
37907;SDS011;23740;51.550;6.846;2023-12-07T10:27:59;14.00;;;6.60;;
37907;SDS011;23740;51.550;6.846;2023-12-07T10:30:27;13.38;;;6.40;;
37907;SDS011;23740;51.550;6.846;2023-12-07T10:32:55;13.57;;;6.88;;
37907;SDS011;23740;51.550;6.846;2023-12-07T10:35:23;14.25;;;7.15;;
37907;SDS011;23740;51.550;6.846;2023-12-07T10:37:52;12.10;;;6.43;;
37907;SDS011;23740;51.550;6.846;2023-12-07T10:40:19;14.35;;;6.45;;
37907;SDS011;23740;51.550;6.846;2023-12-07T10:42:48;12.95;;;6.22;;
37907;SDS011;23740;51.550;6.846;2023-12-07T10:45:17;11.20;;;6.35;;
37907;SDS011;23740;51.550;6.846;2023-12-07T10:47:50;11.43;;;7.00;;
37907;SDS011;23740;51.550;6.846;2023-12-07T10:50:21;11.15;;;6.70;;
37907;SDS011;23740;51.550;6.846;2023-12-07T10:52:51;10.77;;;7.50;;
37907;SDS011;23740;51.550;6.846;2023-12-07T10:55:21;12.50;;;6.45;;
37907;SDS011;23740;51.550;6.846;2023-12-07T10:57:50;12.45;;;6.80;;
37907;SDS011;23740;51.550;6.846;2023-12-07T11:00:21;12.57;;;6.95;;
37907;SDS011;23740;51.550;6.846;2023-12-07T11:03:09;11.43;;;6.50;;
37907;SDS011;23740;51.550;6.846;2023-12-07T11:05:39;9.65;;;5.78;;
37907;SDS011;23740;51.550;6.846;2023-12-07T11:08:09;13.23;;;7.32;;
37907;SDS011;23740;51.550;6.846;2023-12-07T11:10:39;11.82;;;7.05;;
37907;SDS011;23740;51.550;6.846;2023-12-07T11:13:13;11.57;;;6.60;;
37907;SDS011;23740;51.550;6.846;2023-12-07T11:15:53;11.57;;;6.97;;
37907;SDS011;23740;51.550;6.846;2023-12-07T11:18:21;10.63;;;6.53;;
37907;SDS011;23740;51.550;6.846;2023-12-07T11:20:52;9.77;;;6.05;;
37907;SDS011;23740;51.550;6.846;2023-12-07T11:23:21;12.05;;;6.88;;
37907;SDS011;23740;51.550;6.846;2023-12-07T11:25:50;11.55;;;5.88;;
37907;SDS011;23740;51.550;6.846;2023-12-07T11:28:33;9.63;;;6.40;;
37907;SDS011;23740;51.550;6.846;2023-12-07T11:31:07;12.02;;;6.40;;
37907;SDS011;23740;51.550;6.846;2023-12-07T11:33:37;10.32;;;6.22;;
37907;SDS011;23740;51.550;6.846;2023-12-07T11:36:06;9.27;;;6.03;;
37907;SDS011;23740;51.550;6.846;2023-12-07T11:38:36;10.80;;;6.10;;
37907;SDS011;23740;51.550;6.846;2023-12-07T11:41:04;10.85;;;6.25;;
37907;SDS011;23740;51.550;6.846;2023-12-07T11:43:41;11.80;;;6.10;;
37907;SDS011;23740;51.550;6.846;2023-12-07T11:46:15;11.00;;;6.15;;
37907;SDS011;23740;51.550;6.846;2023-12-07T11:48:46;10.68;;;6.28;;
37907;SDS011;23740;51.550;6.846;2023-12-07T11:51:16;10.18;;;6.45;;
37907;SDS011;23740;51.550;6.846;2023-12-07T11:53:44;9.40;;;5.97;;
37907;SDS011;23740;51.550;6.846;2023-12-07T11:56:12;12.13;;;7.38;;
37907;SDS011;23740;51.550;6.846;2023-12-07T11:58:40;9.35;;;6.03;;
37907;SDS011;23740;51.550;6.846;2023-12-07T12:01:08;9.35;;;5.72;;
37907;SDS011;23740;51.550;6.846;2023-12-07T12:03:38;10.90;;;5.70;;
37907;SDS011;23740;51.550;6.846;2023-12-07T12:06:06;10.52;;;6.03;;
37907;SDS011;23740;51.550;6.846;2023-12-07T12:08:39;10.95;;;6.40;;
37907;SDS011;23740;51.550;6.846;2023-12-07T12:11:07;11.77;;;6.32;;
37907;SDS011;23740;51.550;6.846;2023-12-07T12:13:36;10.80;;;6.20;;
37907;SDS011;23740;51.550;6.846;2023-12-07T12:16:04;10.40;;;5.82;;
37907;SDS011;23740;51.550;6.846;2023-12-07T12:18:33;9.35;;;5.88;;
37907;SDS011;23740;51.550;6.846;2023-12-07T12:21:05;7.82;;;5.47;;
37907;SDS011;23740;51.550;6.846;2023-12-07T12:23:35;11.63;;;6.30;;
37907;SDS011;23740;51.550;6.846;2023-12-07T12:26:02;9.68;;;5.90;;
37907;SDS011;23740;51.550;6.846;2023-12-07T12:28:35;10.93;;;6.28;;
37907;SDS011;23740;51.550;6.846;2023-12-07T12:31:10;9.95;;;6.07;;
37907;SDS011;23740;51.550;6.846;2023-12-07T12:33:39;9.63;;;5.93;;
37907;SDS011;23740;51.550;6.846;2023-12-07T12:36:09;9.15;;;5.85;;
37907;SDS011;23740;51.550;6.846;2023-12-07T12:38:38;10.43;;;6.20;;
37907;SDS011;23740;51.550;6.846;2023-12-07T12:41:09;11.13;;;6.03;;
37907;SDS011;23740;51.550;6.846;2023-12-07T12:43:40;11.75;;;5.90;;
37907;SDS011;23740;51.550;6.846;2023-12-07T12:46:09;12.70;;;6.13;;
37907;SDS011;23740;51.550;6.846;2023-12-07T12:48:51;10.75;;;5.68;;
37907;SDS011;23740;51.550;6.846;2023-12-07T12:51:22;8.38;;;5.97;;
37907;SDS011;23740;51.550;6.846;2023-12-07T12:53:51;8.95;;;5.80;;
37907;SDS011;23740;51.550;6.846;2023-12-07T12:56:22;9.43;;;5.50;;
37907;SDS011;23740;51.550;6.846;2023-12-07T12:58:51;11.23;;;6.53;;
37907;SDS011;23740;51.550;6.846;2023-12-07T13:01:19;10.55;;;5.93;;
37907;SDS011;23740;51.550;6.846;2023-12-07T13:03:49;13.55;;;6.72;;
37907;SDS011;23740;51.550;6.846;2023-12-07T13:06:17;10.57;;;6.03;;
37907;SDS011;23740;51.550;6.846;2023-12-07T13:08:51;10.00;;;5.82;;
37907;SDS011;23740;51.550;6.846;2023-12-07T13:11:19;7.95;;;4.85;;
37907;SDS011;23740;51.550;6.846;2023-12-07T13:13:47;7.22;;;4.85;;
37907;SDS011;23740;51.550;6.846;2023-12-07T13:16:15;10.10;;;5.70;;
37907;SDS011;23740;51.550;6.846;2023-12-07T13:18:45;9.70;;;4.93;;
37907;SDS011;23740;51.550;6.846;2023-12-07T13:21:13;9.45;;;6.13;;
37907;SDS011;23740;51.550;6.846;2023-12-07T13:23:42;10.35;;;5.75;;
37907;SDS011;23740;51.550;6.846;2023-12-07T13:26:14;8.63;;;4.90;;
37907;SDS011;23740;51.550;6.846;2023-12-07T13:28:43;9.30;;;5.40;;
37907;SDS011;23740;51.550;6.846;2023-12-07T13:31:12;9.52;;;6.05;;
37907;SDS011;23740;51.550;6.846;2023-12-07T13:33:39;9.10;;;5.13;;
37907;SDS011;23740;51.550;6.846;2023-12-07T13:36:20;10.05;;;5.38;;
37907;SDS011;23740;51.550;6.846;2023-12-07T13:38:50;8.45;;;5.05;;
37907;SDS011;23740;51.550;6.846;2023-12-07T13:41:19;7.68;;;4.95;;
37907;SDS011;23740;51.550;6.846;2023-12-07T13:43:48;8.93;;;5.70;;
37907;SDS011;23740;51.550;6.846;2023-12-07T13:46:16;9.75;;;5.43;;
37907;SDS011;23740;51.550;6.846;2023-12-07T13:48:47;7.15;;;4.97;;
37907;SDS011;23740;51.550;6.846;2023-12-07T13:51:15;8.07;;;5.50;;
37907;SDS011;23740;51.550;6.846;2023-12-07T13:53:44;8.57;;;5.18;;
37907;SDS011;23740;51.550;6.846;2023-12-07T13:56:12;7.20;;;4.28;;
37907;SDS011;23740;51.550;6.846;2023-12-07T13:58:41;11.07;;;5.85;;
37907;SDS011;23740;51.550;6.846;2023-12-07T14:01:14;8.93;;;5.03;;
37907;SDS011;23740;51.550;6.846;2023-12-07T14:03:42;8.98;;;5.82;;
37907;SDS011;23740;51.550;6.846;2023-12-07T14:06:10;10.63;;;5.53;;
37907;SDS011;23740;51.550;6.846;2023-12-07T14:08:52;7.82;;;4.35;;
37907;SDS011;23740;51.550;6.846;2023-12-07T14:11:20;10.20;;;5.40;;
37907;SDS011;23740;51.550;6.846;2023-12-07T14:13:49;8.77;;;4.80;;
37907;SDS011;23740;51.550;6.846;2023-12-07T14:16:20;9.57;;;5.03;;
37907;SDS011;23740;51.550;6.846;2023-12-07T14:19:08;7.80;;;5.53;;
37907;SDS011;23740;51.550;6.846;2023-12-07T14:21:40;7.97;;;5.35;;
37907;SDS011;23740;51.550;6.846;2023-12-07T14:24:20;11.07;;;5.53;;
37907;SDS011;23740;51.550;6.846;2023-12-07T14:26:48;11.07;;;5.35;;
37907;SDS011;23740;51.550;6.846;2023-12-07T14:29:21;10.23;;;5.70;;
37907;SDS011;23740;51.550;6.846;2023-12-07T14:31:53;11.25;;;5.25;;
37907;SDS011;23740;51.550;6.846;2023-12-07T14:34:21;9.55;;;5.45;;
37907;SDS011;23740;51.550;6.846;2023-12-07T14:37:00;9.48;;;5.10;;
37907;SDS011;23740;51.550;6.846;2023-12-07T14:39:29;8.23;;;5.05;;
37907;SDS011;23740;51.550;6.846;2023-12-07T14:41:57;8.18;;;4.93;;